KHDN/HDN METAR and TAF weather

Enter ICAO airport designator
Station Type Date Time Source
KHDN METAR 2019/08/18 08:56 UTC NOAA

KHDN 180856Z AUTO 10007KT 10SM CLR 10/04 A3012 RMK AO2 SLP123 T01000044 53001


Station Type Date Time Source
KHDN Decoded METAR 2019/08/18 08:56 UTC NOAA

Station name not available
Aug 18, 2019 - 04:56 AM EDT / 2019.08.18 0856 UTC
Wind: from the E (100 degrees) at 8 MPH (7 KT):0
Visibility: 10 mile(s):0
Sky conditions: clear
Temperature: 50.0 F (10.0 C)
Dew Point: 39.9 F (4.4 C)
Relative Humidity: 68%
Pressure (altimeter): 30.12 in. Hg (1019 hPa)
Pressure tendency: 0.00 inches (0.1 hPa) higher than three hours ago
ob: KHDN 180856Z AUTO 10007KT 10SM CLR 10/04 A3012 RMK AO2 SLP123 T01000044 53001
cycle: 9

Station Type Date Time Source
KHDN TAF 2019/08/18 06:36 UTC NOAA

TAF KHDN 180535Z 1806/1906 11010KT P6SM FEW120 FEW250
FM181900 26016G26KT P6SM FEW150 FEW250
FM190200 17005KT P6SM SKC

Example: see airport list